Latest Weather Observations for Esperance Airport

IDW60801

Issued at 5:05 am WST Thursday 23 October 2014 (issued every 30 minutes, with the page automatically refreshed every 10 minutes)

About weather observations | Map of weather stations | Latest weather observations for WA | Other Formats
Station Details ID: 009542 Name: ESPERANCE AERO Lat: -33.68 Lon: 121.83 Height: 142.0 m
Data from the previous 72 hours. | See also: Recent months at Esperance Airport
Date/Time
WST
Temp
°C
App
Temp
°C
Dew
Point
Rel
Hum
%
Delta-T
°C
Wind Press
QNH
hPa
Press
MSL
hPa
Rain
since 9 am
mm
Dir
 
Spd
km/h
Gust
km/h
Spd
kts
Gust
kts
23/05:00am 13.5 11.6 12.9 96 0.3 NNE 15 19 8 10 1010.6 1010.4 0.0
23/04:30am 13.8 11.2 13.2 96 0.3 ENE 19 28 10 15 1010.0 1009.8 0.0
23/04:00am 13.7 11.9 13.2 97 0.3 ENE 15 22 8 12 1010.4 1010.2 0.0
23/03:30am 13.6 11.0 13.1 97 0.3 E 19 26 10 14 1010.9 1010.7 0.0
23/03:00am 14.0 11.5 13.4 96 0.3 E 19 22 10 12 1011.3 1011.1 0.0
23/02:30am 14.3 12.6 13.5 95 0.4 E 15 20 8 11 1011.7 1011.5 0.0
23/02:00am 14.3 13.0 13.7 96 0.3 E 13 19 7 10 1012.0 1011.8 0.0
23/01:30am 14.3 13.3 13.5 95 0.4 SE 11 13 6 7 1012.5 1012.3 0.0
23/01:00am 14.7 13.4 13.7 94 0.6 SSE 13 17 7 9 1012.7 1012.5 0.0
23/12:30am 15.2 13.9 13.6 90 0.9 S 13 17 7 9 1013.3 1013.1 0.0
23/12:00am 15.7 13.6 13.7 88 1.1 S 17 20 9 11 1012.8 1012.6 0.0
 
Date/Time
WST
Temp
°C
App
Temp
°C
Dew
Point
Rel
Hum
%
Delta-T
°C
Wind Press
QNH
hPa
Press
MSL
hPa
Rain
since 9 am
mm
Dir
 
Spd
km/h
Gust
km/h
Spd
kts
Gust
kts
22/11:30pm 16.9 14.4 14.0 83 1.7 SSW 20 26 11 14 1013.5 1013.3 0.0
22/11:00pm 16.5 13.6 14.0 85 1.4 NE 22 44 12 24 1012.0 1011.8 0.0
22/10:30pm 16.2 12.8 13.7 85 1.4 NE 24 39 13 21 1011.1 1010.9 0.0
22/10:00pm 16.6 13.3 13.9 84 1.5 NE 24 35 13 19 1012.0 1011.8 0.0
22/09:30pm 17.1 13.9 14.2 83 1.7 NE 24 37 13 20 1012.7 1012.5 0.0
22/09:00pm 17.7 15.4 14.6 82 1.8 NE 20 32 11 17 1013.6 1013.4 0.0
22/08:30pm 18.3 16.1 14.8 80 2.0 NE 20 35 11 19 1014.1 1013.9 0.0
22/08:00pm 18.9 17.0 15.2 79 2.2 ENE 19 28 10 15 1014.6 1014.5 0.0
22/07:30pm 19.6 17.4 15.0 75 2.7 ENE 20 32 11 17 1014.4 1014.3 0.0
22/07:00pm 21.0 19.7 14.9 68 3.6 ENE 15 22 8 12 1014.0 1013.8 0.0
22/06:30pm 21.6 20.3 14.7 65 4.1 ENE 15 20 8 11 1014.5 1014.4 0.0
22/06:00pm 22.6 20.9 14.7 61 4.7 ENE 17 26 9 14 1014.7 1014.6 0.0
22/05:30pm 23.4 22.1 14.9 59 5.1 NE 15 26 8 14 1015.2 1015.1 0.0
22/05:00pm 24.3 22.6 14.7 55 5.7 NE 17 28 9 15 1015.6 1015.5 0.0
22/04:30pm 24.8 23.1 14.6 53 6.1 NE 17 30 9 16 1015.7 1015.6 0.0
22/04:00pm 24.9 22.8 14.7 53 6.1 NE 19 28 10 15 1015.9 1015.8 0.0
22/03:30pm 25.2 22.9 14.6 51 6.4 ENE 20 35 11 19 1015.9 1015.8 0.0
22/03:00pm 25.4 23.0 14.5 51 6.5 ENE 20 32 11 17 1016.3 1016.2 0.0
22/02:30pm 25.5 23.6 15.2 53 6.2 ENE 19 28 10 15 1017.2 1017.0 0.0
22/02:00pm 24.7 22.6 15.1 55 5.8 ENE 20 33 11 18 1017.8 1017.6 0.0
22/01:30pm 24.5 22.5 15.4 57 5.5 E 20 30 11 16 1018.5 1018.3 0.0
22/01:00pm 23.9 22.3 14.9 57 5.4 ENE 17 28 9 15 1019.7 1019.5 0.0
22/12:30pm 22.8 21.5 14.9 61 4.7 NE 15 24 8 13 1020.4 1020.2 0.0
22/12:00pm 22.4 20.7 14.8 62 4.5 ENE 17 28 9 15 1020.6 1020.5 0.0
22/11:30am 21.8 19.7 14.7 64 4.2 NE 19 28 10 15 1021.1 1021.0 0.0
22/11:00am 20.5 18.2 14.2 67 3.7 NE 19 30 10 16 1021.4 1021.3 0.0
22/10:30am 19.9 17.5 14.5 71 3.2 NE 20 32 11 17 1021.6 1021.5 0.0
22/10:00am 18.4 15.0 13.7 74 2.7 NE 24 35 13 19 1021.7 1021.6 0.0
22/09:30am 18.3 15.7 13.8 75 2.6 NE 20 32 11 17 1022.4 1022.3 0.0
22/09:00am 17.2 14.6 13.3 78 2.2 NE 19 30 10 16 1022.9 1022.8 1.0
22/08:30am 16.4 15.0 13.5 83 1.6 NE 13 24 7 13 1023.5 1023.4 1.0
22/08:00am 15.7 13.4 14.1 90 0.9 NE 19 24 10 13 1023.5 1023.4 1.0
22/07:51am 15.5 13.6 14.2 92 0.7 NE 17 22 9 12 1023.5 1023.4 1.0
22/07:30am 14.8 13.3 14.3 97 0.3 NNE 15 24 8 13 1023.4 1023.3 1.0
22/07:00am 13.9 12.2 13.7 99 0.1 NE 15 24 8 13 1023.3 1023.2 1.0
22/06:52am 14.0 12.0 13.8 99 0.1 NE 17 24 9 13 1023.2 1023.1 1.0
22/06:30am 13.1 10.4 12.9 99 0.1 NE 19 26 10 14 1023.3 1023.2 1.0
22/06:13am 12.5 10.4 12.3 99 0.1 NE 15 24 8 13 1023.2 1023.1 1.0
22/06:12am 12.5 10.4 12.3 99 0.1 NE 15 24 8 13 1023.2 1023.1 1.0
22/06:00am 12.7 10.6 12.5 99 0.1 NE 15 22 8 12 1023.0 1022.9 0.8
22/05:41am 12.7 11.0 12.5 99 0.1 NE 13 19 7 10 1023.0 1022.9 0.8
22/05:30am 12.5 10.8 12.3 99 0.1 ENE 13 20 7 11 1023.0 1022.9 0.8
22/05:25am 12.5 10.8 12.3 99 0.1 NE 13 20 7 11 1023.0 1022.9 0.8
22/05:20am 12.3 10.5 12.1 99 0.1 ENE 13 19 7 10 1023.1 1023.0 0.8
22/05:09am 12.3 10.9 12.1 99 0.1 ENE 11 17 6 9 1023.1 1023.0 0.8
22/05:00am 12.1 11.0 11.9 99 0.1 ENE 9 13 5 7 1023.2 1023.1 0.8
22/04:54am 12.2 11.1 12.0 99 0.1 ENE 9 15 5 8 1023.0 1022.9 0.8
22/04:47am 12.3 10.9 12.1 99 0.1 ENE 11 15 6 8 1022.8 1022.7 0.8
22/04:30am 12.5 11.1 12.3 99 0.1 ENE 11 17 6 9 1022.4 1022.3 0.8
22/04:00am 12.1 11.4 11.9 99 0.1 ENE 7 11 4 6 1022.5 1022.4 0.8
22/03:30am 12.2 11.5 12.0 99 0.1 ENE 7 13 4 7 1022.5 1022.4 0.8
22/03:20am 12.4 11.4 12.2 99 0.1 E 9 13 5 7 1022.3 1022.2 0.8
22/03:00am 12.9 11.3 12.7 99 0.1 E 13 17 7 9 1022.3 1022.2 0.8
22/02:31am 12.9 10.9 12.7 99 0.1 E 15 20 8 11 1022.5 1022.4 0.8
22/02:30am 12.9 10.9 12.7 99 0.1 E 15 20 8 11 1022.5 1022.4 0.8
22/02:00am 12.3 10.9 12.1 99 0.1 E 11 15 6 8 1022.8 1022.7 0.8
22/01:30am 12.3 11.2 12.1 99 0.1 E 9 13 5 7 1023.2 1023.1 0.8
22/01:09am 12.3 11.2 12.1 99 0.1 E 9 13 5 7 1023.2 1023.1 0.8
22/01:02am 12.2 11.1 12.0 99 0.1 ENE 9 11 5 6 1023.3 1023.2 0.8
22/01:00am 12.3 11.2 12.1 99 0.1 ENE 9 11 5 6 1023.3 1023.2 0.8
22/12:48am 12.0 11.4 11.8 99 0.1 ENE 6 9 3 5 1023.4 1023.3 0.8
22/12:42am 12.2 11.7 12.0 99 0.1 ENE 6 9 3 5 1023.5 1023.4 0.8
22/12:30am 12.3 11.6 12.1 99 0.1 ENE 7 9 4 5 1023.5 1023.4 0.8
22/12:00am 12.2 11.5 12.0 99 0.1 E 7 9 4 5 1023.7 1023.6 0.8
 
Date/Time
WST
Temp
°C
App
Temp
°C
Dew
Point
Rel
Hum
%
Delta-T
°C
Wind Press
QNH
hPa
Press
MSL
hPa
Rain
since 9 am
mm
Dir
 
Spd
km/h
Gust
km/h
Spd
kts
Gust
kts
21/11:30pm 13.2 12.4 13.0 99 0.1 E 9 13 5 7 1024.2 1024.0 0.8
21/11:00pm 13.1 12.7 12.9 99 0.1 E 7 11 4 6 1024.5 1024.3 0.8
21/10:47pm 13.1 12.7 12.9 99 0.1 E 7 9 4 5 1024.5 1024.3 0.8
21/10:37pm 13.3 12.9 13.1 99 0.1 ESE 7 9 4 5 1024.7 1024.5 0.8
21/10:30pm 13.3 12.6 13.1 99 0.1 SE 9 15 5 8 1024.7 1024.5 0.8
21/10:10pm 13.8 13.6 13.6 99 0.1 E 7 11 4 6 1025.1 1024.9 0.8
21/10:00pm 13.6 13.0 13.4 99 0.1 E 9 9 5 5 1025.0 1024.8 0.8
21/09:56pm 13.6 13.3 13.4 99 0.1 E 7 9 4 5 1025.0 1024.8 0.8
21/09:30pm 13.6 13.5 13.4 99 0.1 NE 6 7 3 4 1025.1 1024.9 0.8
21/09:13pm 14.0 13.9 13.8 99 0.1 E 7 9 4 5 1025.3 1025.1 0.8
21/09:07pm 14.1 14.0 13.9 99 0.1 E 7 9 4 5 1025.3 1025.1 0.8
21/09:00pm 14.1 13.6 13.9 99 0.1 ESE 9 11 5 6 1025.4 1025.2 0.8
21/08:49pm 14.2 14.1 14.0 99 0.1 SE 7 11 4 6 1025.4 1025.2 0.8
21/08:30pm 13.9 13.7 13.7 99 0.1 ESE 7 9 4 5 1025.6 1025.4 0.8
21/08:00pm 14.0 13.4 13.5 97 0.3 ESE 9 13 5 7 1025.4 1025.2 0.8
21/07:41pm 14.1 14.1 13.5 96 0.3 S 6 7 3 4 1025.2 1025.0 0.8
21/07:30pm 13.9 13.7 13.1 95 0.4 S 6 7 3 4 1025.1 1024.9 0.8
21/07:00pm 14.8 14.1 13.3 91 0.8 S 9 17 5 9 1024.8 1024.6 0.8
21/06:30pm 15.1 13.6 13.1 88 1.1 S 13 17 7 9 1024.4 1024.2 0.8
21/06:00pm 15.5 14.1 13.5 88 1.1 S 13 17 7 9 1024.0 1023.8 0.8
21/05:30pm 15.4 14.0 13.4 88 1.1 SSE 13 19 7 10 1023.6 1023.5 0.8
21/05:00pm 15.7 13.5 13.2 85 1.4 SSE 17 22 9 12 1023.4 1023.3 0.8
21/04:30pm 16.6 14.5 13.5 82 1.8 S 17 24 9 13 1023.2 1023.1 0.8
21/04:00pm 16.5 14.0 13.4 82 1.7 S 19 28 10 15 1023.1 1023.0 0.8
21/03:30pm 16.6 13.2 13.7 83 1.6 S 24 33 13 18 1022.9 1022.8 0.8
21/03:00pm 17.5 14.1 13.6 78 2.2 SSW 24 32 13 17 1022.8 1022.7 0.8
21/02:30pm 17.8 14.1 13.9 78 2.2 SSW 26 35 14 19 1022.6 1022.5 0.6
21/02:00pm 18.4 14.8 14.3 77 2.4 SSW 26 33 14 18 1022.5 1022.4 0.6
21/01:30pm 19.4 16.1 14.9 75 2.6 SSW 26 37 14 20 1022.6 1022.5 0.6
21/01:00pm 19.1 16.4 14.6 75 2.6 SW 22 30 12 16 1022.6 1022.5 0.6
21/12:30pm 18.6 15.8 14.3 76 2.5 SW 22 30 12 16 1022.8 1022.7 0.6
21/12:00pm 18.6 15.9 14.7 78 2.3 SW 22 32 12 17 1022.7 1022.6 0.6
21/11:30am 18.5 16.3 15.0 80 2.1 SW 20 28 11 15 1022.7 1022.6 0.6
21/11:05am 17.3 15.2 15.3 88 1.2 SW 20 28 11 15 1022.8 1022.7 0.6
21/11:00am 18.0 16.4 16.0 88 1.2 SW 19 26 10 14 1022.8 1022.7 0.6
21/10:39am 16.3 14.6 15.7 96 0.4 SW 19 24 10 13 1022.9 1022.8 0.6
21/10:30am 16.8 15.8 16.5 98 0.2 SW 17 22 9 12 1023.0 1022.9 0.6
21/10:00am 16.7 14.2 16.2 97 0.3 WSW 24 32 13 17 1022.9 1022.8 0.4
21/09:30am 16.3 14.2 16.1 99 0.1 WSW 22 26 12 14 1022.7 1022.6 0.2
21/09:00am 16.0 13.7 15.8 99 0.1 W 22 28 12 15 1022.6 1022.5 2.6
21/08:52am 15.9 13.6 15.7 99 0.1 W 22 28 12 15 1022.5 1022.4 2.6
21/08:45am 15.9 14.0 15.7 99 0.1 W 20 26 11 14 1022.5 1022.4 2.6
21/08:30am 15.5 13.4 15.3 99 0.1 W 20 24 11 13 1022.3 1022.2 2.6
21/08:17am 15.6 13.6 15.4 99 0.1 W 20 28 11 15 1022.1 1022.0 2.6
21/08:00am 15.2 12.6 15.0 99 0.1 W 22 28 12 15 1021.9 1021.8 2.6
21/07:30am 15.0 13.3 14.8 99 0.1 W 17 20 9 11 1021.5 1021.4 2.6
21/07:00am 14.5 12.1 14.3 99 0.1 W 20 28 11 15 1021.2 1021.1 2.6
21/06:48am 14.6 12.4 14.4 99 0.1 W 19 26 10 14 1021.0 1020.9 2.6
21/06:32am 14.3 11.4 14.1 99 0.1 W 22 28 12 15 1020.7 1020.6 2.6
21/06:30am 14.4 11.9 14.2 99 0.1 W 20 28 11 15 1020.7 1020.6 2.6
21/06:00am 14.1 12.1 13.9 99 0.1 W 17 22 9 12 1020.2 1020.0 2.6
21/05:30am 14.2 11.9 14.0 99 0.1 W 19 22 10 12 1019.8 1019.6 2.6
21/05:00am 14.4 12.5 14.2 99 0.1 W 17 22 9 12 1019.4 1019.2 2.2
21/04:52am 14.4 12.9 14.2 99 0.1 W 15 22 8 12 1019.3 1019.1 2.2
21/04:30am 14.5 12.3 14.3 99 0.1 W 19 24 10 13 1019.0 1018.8 2.2
21/04:16am 14.6 12.8 14.4 99 0.1 W 17 22 9 12 1018.9 1018.7 2.2
21/04:00am 14.7 12.9 14.5 99 0.1 W 17 26 9 14 1018.6 1018.4 2.2
21/03:59am 14.7 12.9 14.5 99 0.1 W 17 24 9 13 1018.6 1018.4 2.2
21/03:37am 14.6 12.8 14.4 99 0.1 W 17 24 9 13 1018.5 1018.3 2.2
21/03:30am 14.6 12.4 14.4 99 0.1 W 19 24 10 13 1018.4 1018.2 2.2
21/03:16am 14.6 12.8 14.4 99 0.1 W 17 22 9 12 1018.1 1017.9 2.2
21/03:00am 14.6 12.8 14.4 99 0.1 W 17 20 9 11 1018.1 1017.9 2.0
21/02:30am 14.6 12.2 14.4 99 0.1 W 20 24 11 13 1017.9 1017.7 2.0
21/02:07am 14.5 11.7 14.3 99 0.1 W 22 30 12 16 1017.8 1017.6 2.0
21/02:00am 14.5 11.7 14.3 99 0.1 W 22 30 12 16 1017.8 1017.6 2.0
21/01:30am 14.6 11.8 14.4 99 0.1 W 22 30 12 16 1017.7 1017.5 2.0
21/01:00am 14.7 12.5 14.5 99 0.1 W 19 26 10 14 1017.5 1017.3 1.8
21/12:57am 14.7 12.3 14.5 99 0.1 W 20 26 11 14 1017.5 1017.3 1.8
21/12:56am 14.7 12.3 14.5 99 0.1 W 20 26 11 14 1017.5 1017.3 1.8
21/12:40am 14.5 12.1 14.3 99 0.1 W 20 28 11 15 1017.5 1017.3 1.6
21/12:30am 14.5 11.7 14.2 98 0.2 W 22 28 12 15 1017.5 1017.3 1.6
21/12:00am 14.8 11.3 14.5 98 0.2 W 26 33 14 18 1017.3 1017.1 1.6
 
Date/Time
WST
Temp
°C
App
Temp
°C
Dew
Point
Rel
Hum
%
Delta-T
°C
Wind Press
QNH
hPa
Press
MSL
hPa
Rain
since 9 am
mm
Dir
 
Spd
km/h
Gust
km/h
Spd
kts
Gust
kts
20/11:30pm 14.8 12.1 14.6 99 0.1 W 22 30 12 16 1017.6 1017.4 1.6
20/11:24pm 14.7 12.5 14.5 99 0.1 W 19 24 10 13 1017.6 1017.4 1.6
20/11:06pm 14.6 12.7 14.3 98 0.2 W 17 22 9 12 1017.6 1017.4 1.6
20/11:00pm 14.6 12.2 14.3 98 0.2 W 20 30 11 16 1017.7 1017.5 1.6
20/10:30pm 15.1 11.7 14.8 98 0.2 W 26 35 14 19 1017.8 1017.6 1.6
20/10:00pm 15.0 12.0 14.7 98 0.2 W 24 32 13 17 1017.9 1017.7 1.6
20/09:30pm 15.0 10.4 14.5 97 0.3 W 32 41 17 22 1017.8 1017.6 1.6
20/09:29pm 15.0 10.3 14.4 96 0.3 W 32 41 17 22 1017.8 1017.6 1.6
20/09:22pm 15.1 9.9 14.5 96 0.3 WSW 35 46 19 25 1017.9 1017.7 1.6
20/09:10pm 15.6 11.9 15.1 97 0.3 W 28 39 15 21 1018.1 1017.9 1.6
20/09:00pm 15.6 11.9 15.1 97 0.3 W 28 37 15 20 1018.0 1017.8 1.6
20/08:51pm 15.7 13.6 15.2 97 0.3 W 20 30 11 16 1018.0 1017.8 1.6
20/08:33pm 15.8 13.9 15.3 97 0.3 WNW 19 30 10 16 1018.1 1017.9 1.6
20/08:30pm 15.8 13.9 15.3 97 0.3 WNW 19 26 10 14 1018.0 1017.8 1.6
20/08:00pm 15.6 13.7 15.3 98 0.2 WNW 19 24 10 13 1017.4 1017.2 1.2
20/07:30pm 15.8 14.8 15.5 98 0.2 WNW 15 19 8 10 1017.0 1016.8 1.2
20/07:00pm 15.8 14.7 15.3 97 0.3 WNW 15 19 8 10 1016.5 1016.3 1.2
20/06:30pm 15.6 14.7 14.8 95 0.5 W 13 17 7 9 1016.0 1015.9 1.2
20/06:00pm 16.6 15.4 15.0 90 0.9 W 15 20 8 11 1015.5 1015.4 1.2
20/05:30pm 17.3 17.7 16.2 93 0.7 SSW 9 13 5 7 1014.7 1014.6 1.2
20/05:00pm 17.8 16.8 16.7 93 0.7 SSW 17 20 9 11 1014.2 1014.0 1.2
20/04:56pm 17.8 16.8 16.5 92 0.8 SW 17 20 9 11 1014.1 1013.9 1.2
20/04:38pm 17.6 16.8 15.0 85 1.5 W 13 20 7 11 1013.9 1013.7 1.2
20/04:30pm 18.2 17.2 14.7 80 2.0 WNW 13 19 7 10 1013.7 1013.5 0.4
20/04:00pm 19.3 18.4 14.8 75 2.6 N 13 24 7 13 1013.1 1012.9 0.4
20/03:30pm 18.7 17.6 15.2 80 2.1 N 15 19 8 10 1013.0 1012.8 0.4
20/03:00pm 19.8 18.8 15.7 77 2.4 NW 15 22 8 12 1013.1 1012.9 0.4
20/02:30pm 19.0 16.3 13.0 68 3.4 WNW 19 26 10 14 1013.1 1012.9 0.4
20/02:00pm 18.8 16.1 14.7 77 2.4 NW 22 30 12 16 1013.0 1012.8 0.2
20/01:30pm 18.9 15.7 14.2 74 2.7 WNW 24 35 13 19 1013.1 1012.9 0.0
20/01:00pm 19.9 16.3 13.1 65 3.9 NW 24 32 13 17 1013.2 1013.0 0.0
20/12:30pm 20.5 15.9 11.2 55 5.1 NW 26 35 14 19 1013.1 1012.9 0.0
20/12:00pm 21.8 17.8 11.8 53 5.6 NW 24 33 13 18 1013.0 1012.8 0.0
20/11:30am 20.5 15.6 11.2 55 5.1 WNW 28 35 15 19 1012.9 1012.7 0.0
20/11:00am 21.6 17.9 12.7 57 5.1 NW 24 32 13 17 1012.9 1012.7 0.0
20/10:30am 20.5 16.9 13.0 62 4.3 WNW 24 33 13 18 1013.1 1012.9 0.0
20/10:00am 19.8 15.9 13.3 66 3.7 WNW 26 33 14 18 1013.4 1013.2 0.0
20/09:30am 18.8 16.2 13.9 73 2.8 WNW 20 26 11 14 1013.5 1013.3 0.0
20/09:00am 18.4 15.0 13.7 74 2.7 NW 24 32 13 17 1013.6 1013.4 42.0
20/08:30am 17.8 15.0 14.3 80 2.0 NNW 22 32 12 17 1013.7 1013.5 42.0
20/08:00am 16.5 13.1 13.6 83 1.6 N 24 33 13 18 1013.7 1013.5 42.0
20/07:30am 15.9 13.1 14.3 90 0.9 N 22 32 12 17 1013.6 1013.4 42.0
20/07:06am 14.4 10.9 13.4 94 0.6 N 24 32 13 17 1013.7 1013.5 42.0
20/07:00am 14.1 10.6 13.3 95 0.4 N 24 33 13 18 1013.7 1013.5 42.0
20/06:30am 13.5 10.9 13.2 98 0.2 NNE 19 26 10 14 1013.7 1013.5 42.0
20/06:00am 13.0 10.2 12.7 98 0.2 NNE 19 26 10 14 1013.3 1013.1 42.0
20/05:57am 13.0 10.2 12.7 98 0.2 NNE 19 22 10 12 1013.2 1013.0 42.0
20/05:30am 12.1 9.1 11.9 99 0.1 N 19 28 10 15 1013.1 1012.9 42.0

Other Formats:

Comma delimited format used in spreadsheet applications
http://www.bom.gov.au/fwo/IDW60801/IDW60801.95638.axf

JavaScript Object Notation format (JSON) in row-major order
http://www.bom.gov.au/fwo/IDW60801/IDW60801.95638.json